Lerwick, United Kingdom
Current Conditions -  °F | °C
As of 8:50 AM on Friday 24 Oct 2014 (Local Time) from EGPB Reporting Station
Few Clouds Few Clouds  
Wind Chill: 50°   Ceiling: Unl
Heat Index: 50°   Visibility: 6mi
Dew Point: 43°   Wind: 23mph
Humidity: 76%   Direction: 210°SSW
Pressure: 29.56"   Gusts: NA
Location:  60.15°N, 1.15°W
Report Text: EGPB 240750Z 21020KT 9999 FEW018 10/06 Q1001 NOSIG
Loading
Personal Weather Stations






























Interactive Weather Map New forecast layout! Learn more

10-Day Weather Forecast

Advertisements
Track Severe Weather on mobile